Gilbert Plains, Canada
Current Conditions -  °F | °C
As of 6:00 AM on Saturday 20 Dec 2014 (Local Time) from CYDN Reporting Station
Overcast Overcast  
Wind Chill: -10°   Ceiling: 1200
Heat Index: -6°   Visibility: 9mi
Dew Point: -8°   Wind: 6mph
Humidity: 86%   Direction: 120°ESE
Pressure: 29.97"   Gusts: NA
Location:  51.13°N, 100.48°W
Report Text: CYDN 201200Z AUTO 12005KT 9SM OVC012 M06/M08 A2997 RMK SLP168
Loading
Personal Weather Stations






























Interactive Weather Map New forecast layout! Learn more

10-Day Weather Forecast

Advertisements
Track Severe Weather on mobile